Time;durP1;ratioP1;P1;durP2;ratioP2;P2;SDS_P1;SDS_P2;PMS_P1;PMS_P2;Temp;Humidity;BMP_temperature;BMP_pressure;BME280_temperature;BME280_humidity;BME280_pressure;Samples;Min_cycle;Max_cycle;Signal;HPM_P1;HPM_P2
2022/03/18 00:04:53;;;;;;;11.10;4.90;;;;;;;;;;10344923;28;20220;-78
2022/03/18 00:09:54;;;;;;;15.15;4.70;;;;;;;;;;10342953;28;20219;-77
2022/03/18 00:14:55;;;;;;;13.07;5.63;;;;;;;;;;10342069;28;20216;-77
2022/03/18 00:19:57;;;;;;;13.75;5.05;;;;;;;;;;10342397;28;20570;-76
2022/03/18 00:24:58;;;;;;;9.73;4.97;;;;;;;;;;10344570;28;20200;-77
2022/03/18 00:30:00;;;;;;;8.90;4.50;;;;;;;;;;10340934;28;20208;-76
2022/03/18 00:35:01;;;;;;;10.50;4.53;;;;;;;;;;10371033;28;20212;-78
2022/03/18 00:40:03;;;;;;;12.95;4.97;;;;;;;;;;10340388;28;20228;-76
2022/03/18 00:45:04;;;;;;;15.63;5.60;;;;;;;;;;10341291;28;20204;-77
2022/03/18 00:55:25;;;;;;;14.00;4.65;;;;;;;;;;10338510;28;20219;-77
2022/03/18 01:00:26;;;;;;;8.82;4.93;;;;;;;;;;10341915;28;20200;-77
2022/03/18 01:05:27;;;;;;;10.52;5.30;;;;;;;;;;10341958;28;20262;-77
2022/03/18 01:10:28;;;;;;;10.93;4.55;;;;;;;;;;10338000;28;20203;-77
2022/03/18 01:15:29;;;;;;;11.40;5.05;;;;;;;;;;10337715;28;20215;-78
2022/03/18 01:20:31;;;;;;;14.68;4.90;;;;;;;;;;10336323;28;20287;-77
2022/03/18 01:25:32;;;;;;;15.45;4.53;;;;;;;;;;10340417;28;20210;-77
2022/03/18 01:30:33;;;;;;;9.20;4.30;;;;;;;;;;10337419;28;20202;-78
2022/03/18 01:35:34;;;;;;;13.15;4.78;;;;;;;;;;10341648;28;20752;-78
2022/03/18 01:40:35;;;;;;;14.63;4.20;;;;;;;;;;10337331;28;20619;-76
2022/03/18 01:45:36;;;;;;;5.30;3.60;;;;;;;;;;10339121;28;20209;-77
2022/03/18 01:50:40;;;;;;;17.10;4.28;;;;;;;;;;10346707;28;20271;-77
2022/03/18 01:55:41;;;;;;;12.13;4.72;;;;;;;;;;10348564;28;20205;-77
2022/03/18 02:00:42;;;;;;;15.27;4.22;;;;;;;;;;10342893;28;20235;-77
2022/03/18 02:05:43;;;;;;;17.85;3.95;;;;;;;;;;10345160;28;20584;-77
2022/03/18 02:10:45;;;;;;;11.95;3.85;;;;;;;;;;10346339;28;20267;-77
2022/03/18 02:15:46;;;;;;;14.13;3.75;;;;;;;;;;10345513;28;20215;-76
2022/03/18 02:20:47;;;;;;;19.92;4.30;;;;;;;;;;10345077;28;20229;-72
2022/03/18 02:25:48;;;;;;;18.05;4.20;;;;;;;;;;10345854;28;20232;-77
2022/03/18 02:30:49;;;;;;;9.50;3.35;;;;;;;;;;10345346;28;20252;-76
2022/03/18 02:35:56;;;;;;;13.05;4.30;;;;;;;;;;10343920;28;20209;-76
2022/03/18 02:40:57;;;;;;;11.68;3.67;;;;;;;;;;10347035;28;21002;-76
2022/03/18 02:45:58;;;;;;;11.77;3.67;;;;;;;;;;10344134;28;20219;-76
2022/03/18 02:50:59;;;;;;;14.90;3.38;;;;;;;;;;10343566;28;20663;-77
2022/03/18 02:56:02;;;;;;;15.38;3.42;;;;;;;;;;10344885;28;20216;-76
2022/03/18 03:01:03;;;;;;;15.93;3.33;;;;;;;;;;10343687;28;20232;-76
2022/03/18 03:11:24;;;;;;;17.08;3.90;;;;;;;;;;10343166;28;20207;-78
2022/03/18 03:16:26;;;;;;;17.52;4.13;;;;;;;;;;10345011;28;20200;-76
2022/03/18 03:21:27;;;;;;;7.40;3.10;;;;;;;;;;10341091;28;20192;-77
2022/03/18 03:26:28;;;;;;;9.38;3.83;;;;;;;;;;10345317;28;20708;-78
2022/03/18 03:31:29;;;;;;;10.43;2.90;;;;;;;;;;10344596;28;20588;-78
2022/03/18 03:36:30;;;;;;;14.52;3.58;;;;;;;;;;10343931;28;20269;-78
2022/03/18 03:41:31;;;;;;;22.08;4.47;;;;;;;;;;10343880;28;20289;-77
2022/03/18 03:46:33;;;;;;;11.70;3.35;;;;;;;;;;10341647;28;20232;-78
2022/03/18 03:51:35;;;;;;;21.98;4.65;;;;;;;;;;10341285;28;20217;-77
2022/03/18 03:56:36;;;;;;;13.27;3.17;;;;;;;;;;10342148;28;20202;-78
2022/03/18 04:01:38;;;;;;;11.73;4.05;;;;;;;;;;10341916;28;20235;-78
2022/03/18 04:06:39;;;;;;;16.45;3.58;;;;;;;;;;10342078;28;20216;-78
2022/03/18 04:11:40;;;;;;;22.85;3.83;;;;;;;;;;10338143;28;20251;-78
2022/03/18 04:16:41;;;;;;;17.13;3.28;;;;;;;;;;10340223;28;20719;-77
2022/03/18 04:21:43;;;;;;;13.73;2.97;;;;;;;;;;10338402;28;20211;-78
2022/03/18 04:26:44;;;;;;;21.73;4.18;;;;;;;;;;10340328;28;20859;-77
2022/03/18 04:31:45;;;;;;;10.18;3.40;;;;;;;;;;10338904;28;20226;-77
2022/03/18 04:36:46;;;;;;;12.73;3.63;;;;;;;;;;10340256;28;20211;-77
2022/03/18 04:41:47;;;;;;;12.70;3.92;;;;;;;;;;10338309;28;20242;-77
2022/03/18 04:46:48;;;;;;;17.27;4.10;;;;;;;;;;10340494;28;20772;-77
2022/03/18 04:51:49;;;;;;;15.68;4.03;;;;;;;;;;10335896;28;20196;-77
2022/03/18 05:02:14;;;;;;;9.95;3.00;;;;;;;;;;10331311;28;20234;-76
2022/03/18 05:07:15;;;;;;;11.70;3.92;;;;;;;;;;10338757;28;20208;-74
2022/03/18 05:12:18;;;;;;;11.93;3.17;;;;;;;;;;10336114;28;20201;-76
2022/03/18 05:17:19;;;;;;;15.82;3.30;;;;;;;;;;10340776;28;20210;-75
2022/03/18 05:22:20;;;;;;;12.15;3.53;;;;;;;;;;10344723;28;20215;-76
2022/03/18 05:27:21;;;;;;;13.77;3.85;;;;;;;;;;10345826;28;20587;-75
2022/03/18 05:32:22;;;;;;;26.20;4.75;;;;;;;;;;10344599;28;20268;-75
2022/03/18 05:37:23;;;;;;;8.48;4.35;;;;;;;;;;10340296;28;20216;-75
2022/03/18 05:42:25;;;;;;;16.98;4.30;;;;;;;;;;10339081;28;20231;-75
2022/03/18 05:47:27;;;;;;;16.70;4.97;;;;;;;;;;10342782;28;20220;-75
2022/03/18 05:52:30;;;;;;;28.92;5.28;;;;;;;;;;10340688;28;20236;-75
2022/03/18 05:57:32;;;;;;;17.60;4.70;;;;;;;;;;10344601;28;20266;-75
2022/03/18 06:02:33;;;;;;;15.13;4.70;;;;;;;;;;10341159;28;20228;-76
2022/03/18 06:07:35;;;;;;;13.05;4.25;;;;;;;;;;10340173;28;20208;-76
2022/03/18 06:12:36;;;;;;;17.50;4.55;;;;;;;;;;10350049;28;20573;-72
2022/03/18 06:17:37;;;;;;;17.13;5.05;;;;;;;;;;10342804;28;20215;-79
2022/03/18 06:22:38;;;;;;;21.67;5.70;;;;;;;;;;10342137;28;20205;-79
2022/03/18 06:27:39;;;;;;;23.95;6.68;;;;;;;;;;10344060;28;20216;-79
2022/03/18 06:32:40;;;;;;;19.92;5.25;;;;;;;;;;10347091;28;20220;-79
2022/03/18 06:37:41;;;;;;;17.92;4.90;;;;;;;;;;10345952;28;20208;-78
2022/03/18 06:42:42;;;;;;;31.73;4.93;;;;;;;;;;10348660;28;20247;-79
2022/03/18 06:47:43;;;;;;;15.50;4.65;;;;;;;;;;10352021;28;20307;-79
2022/03/18 06:52:44;;;;;;;19.15;5.63;;;;;;;;;;10351010;28;20298;-78
2022/03/18 06:57:45;;;;;;;17.20;5.25;;;;;;;;;;10354689;28;20192;-79
2022/03/18 07:02:47;;;;;;;18.35;5.32;;;;;;;;;;10353590;28;20588;-79
2022/03/18 07:07:48;;;;;;;20.15;5.55;;;;;;;;;;10348353;28;20258;-81
2022/03/18 07:12:49;;;;;;;19.25;5.40;;;;;;;;;;10350745;28;20554;-79
2022/03/18 07:17:59;;;;;;;26.65;5.97;;;;;;;;;;10353760;28;20899;-81
2022/03/18 07:23:00;;;;;;;28.60;5.85;;;;;;;;;;10350613;28;20240;-80
2022/03/18 07:28:01;;;;;;;19.75;5.25;;;;;;;;;;10347740;28;20262;-79
2022/03/18 07:33:03;;;;;;;28.17;5.30;;;;;;;;;;10342118;28;20633;-79
2022/03/18 07:38:09;;;;;;;20.75;4.18;;;;;;;;;;10338119;28;20291;-79
2022/03/18 07:43:10;;;;;;;16.77;5.00;;;;;;;;;;10345194;28;20216;-78
2022/03/18 07:48:14;;;;;;;22.02;4.25;;;;;;;;;;10351854;28;20208;-73
2022/03/18 07:53:15;;;;;;;14.45;4.53;;;;;;;;;;10342004;28;20208;-72
2022/03/18 07:58:16;;;;;;;26.48;4.75;;;;;;;;;;10347983;28;20204;-79
2022/03/18 08:03:17;;;;;;;29.45;5.63;;;;;;;;;;10348600;28;21252;-77
2022/03/18 08:08:18;;;;;;;19.75;4.60;;;;;;;;;;10354086;28;20224;-77
2022/03/18 08:13:19;;;;;;;35.40;6.45;;;;;;;;;;10341883;28;20192;-76
2022/03/18 08:18:20;;;;;;;24.33;6.10;;;;;;;;;;10342759;28;20298;-78
2022/03/18 08:23:23;;;;;;;21.13;6.65;;;;;;;;;;10348438;28;20314;-77
2022/03/18 08:28:24;;;;;;;26.05;5.10;;;;;;;;;;10373526;28;20219;-78
2022/03/18 08:33:26;;;;;;;21.27;4.60;;;;;;;;;;10340081;28;20591;-77
2022/03/18 08:38:27;;;;;;;27.95;6.10;;;;;;;;;;10343025;28;20205;-77
2022/03/18 08:43:29;;;;;;;20.05;5.60;;;;;;;;;;10347457;28;20898;-77
2022/03/18 08:48:30;;;;;;;19.77;5.22;;;;;;;;;;10351753;28;20324;-77
2022/03/18 08:53:31;;;;;;;14.57;4.85;;;;;;;;;;10344794;28;20616;-79
2022/03/18 08:58:32;;;;;;;18.52;5.15;;;;;;;;;;10347874;28;20191;-77
2022/03/18 09:03:33;;;;;;;19.10;5.07;;;;;;;;;;10343678;28;20224;-76
2022/03/18 09:08:34;;;;;;;23.92;6.00;;;;;;;;;;10340894;28;20216;-77
2022/03/18 09:13:35;;;;;;;19.30;6.13;;;;;;;;;;10338618;28;20216;-78
2022/03/18 09:18:37;;;;;;;17.17;5.97;;;;;;;;;;10342434;28;20286;-79
2022/03/18 09:23:38;;;;;;;28.75;8.20;;;;;;;;;;10340608;28;20299;-79
2022/03/18 09:28:40;;;;;;;17.75;6.88;;;;;;;;;;10349062;28;20574;-78
2022/03/18 09:33:42;;;;;;;25.85;7.38;;;;;;;;;;10342539;28;20216;-77
2022/03/18 09:38:43;;;;;;;14.07;5.07;;;;;;;;;;10342536;28;20227;-77
2022/03/18 09:43:44;;;;;;;14.52;4.93;;;;;;;;;;10345300;28;20217;-78
2022/03/18 09:48:45;;;;;;;10.32;4.45;;;;;;;;;;10341345;28;20311;-80
2022/03/18 09:53:46;;;;;;;13.48;5.07;;;;;;;;;;10377782;28;20250;-79
2022/03/18 09:58:48;;;;;;;15.32;5.25;;;;;;;;;;10358711;28;20212;-83
2022/03/18 10:03:50;;;;;;;7.95;2.88;;;;;;;;;;10357677;28;20240;-83
2022/03/18 10:08:51;;;;;;;6.97;3.25;;;;;;;;;;10355876;28;20220;-81
2022/03/18 10:13:52;;;;;;;5.15;2.75;;;;;;;;;;10352662;28;20200;-79
2022/03/18 10:18:54;;;;;;;12.73;5.20;;;;;;;;;;10349344;28;20203;-79
2022/03/18 10:24:08;;;;;;;10.55;3.22;;;;;;;;;;10351887;28;20205;-81
2022/03/18 10:29:11;;;;;;;8.63;4.35;;;;;;;;;;10347757;28;20236;-78
2022/03/18 10:39:38;;;;;;;9.55;4.57;;;;;;;;;;10351103;28;20250;-78
2022/03/18 10:44:45;;;;;;;12.27;5.50;;;;;;;;;;10344987;28;20262;-79
2022/03/18 10:49:47;;;;;;;11.50;4.72;;;;;;;;;;10346091;28;20307;-80
2022/03/18 10:54:48;;;;;;;7.70;4.13;;;;;;;;;;10346324;28;20576;-79
2022/03/18 10:59:49;;;;;;;5.65;3.40;;;;;;;;;;10346538;28;20203;-77
2022/03/18 11:04:50;;;;;;;5.60;1.98;;;;;;;;;;10340403;28;20220;-78
2022/03/18 11:15:12;;;;;;;5.82;1.63;;;;;;;;;;10343520;28;20204;-76
2022/03/18 11:20:14;;;;;;;5.13;1.70;;;;;;;;;;10339762;28;20226;-77
2022/03/18 11:25:16;;;;;;;3.60;1.30;;;;;;;;;;10342965;28;20247;-75
2022/03/18 11:30:49;;;;;;;4.70;1.60;;;;;;;;;;10339815;28;21068;-76
2022/03/18 11:35:50;;;;;;;4.15;1.20;;;;;;;;;;10328845;28;20208;-76
2022/03/18 11:41:00;;;;;;;2.63;1.45;;;;;;;;;;10332186;28;20309;-77
2022/03/18 11:46:13;;;;;;;2.63;1.33;;;;;;;;;;10327491;28;20689;-77
2022/03/18 11:51:24;;;;;;;2.88;1.33;;;;;;;;;;10338325;28;20219;-75
2022/03/18 11:56:45;;;;;;;2.70;1.30;;;;;;;;;;10333896;28;20581;-76
2022/03/18 12:01:51;;;;;;;1.25;1.10;;;;;;;;;;10327821;28;20228;-76
2022/03/18 12:07:11;;;;;;;2.90;1.35;;;;;;;;;;10334226;28;20220;-76
2022/03/18 12:12:15;;;;;;;1.60;0.80;;;;;;;;;;10331156;28;20247;-78
2022/03/18 12:17:17;;;;;;;4.25;1.45;;;;;;;;;;10327452;28;20239;-76
2022/03/18 12:22:18;;;;;;;3.65;1.48;;;;;;;;;;10333508;28;20212;-76
2022/03/18 12:27:20;;;;;;;5.07;1.30;;;;;;;;;;10333821;28;21224;-76
2022/03/18 12:32:21;;;;;;;5.55;1.65;;;;;;;;;;10329552;28;20220;-76
2022/03/18 12:37:31;;;;;;;2.97;1.30;;;;;;;;;;10339148;28;20204;-77
2022/03/18 12:42:32;;;;;;;3.90;1.20;;;;;;;;;;10335653;28;20273;-77
2022/03/18 12:47:33;;;;;;;3.30;0.82;;;;;;;;;;10338130;28;20768;-79
2022/03/18 12:52:42;;;;;;;1.45;1.02;;;;;;;;;;10343476;28;20232;-78
2022/03/18 12:57:43;;;;;;;3.13;0.70;;;;;;;;;;10353516;28;20219;-77
2022/03/18 13:02:45;;;;;;;2.83;1.00;;;;;;;;;;10346105;28;20363;-78
2022/03/18 13:07:48;;;;;;;3.00;1.00;;;;;;;;;;10340960;28;20267;-78
2022/03/18 13:12:50;;;;;;;2.42;0.70;;;;;;;;;;10338874;28;20204;-77
2022/03/18 13:17:51;;;;;;;1.23;0.80;;;;;;;;;;10328819;28;20253;-80
2022/03/18 13:22:54;;;;;;;0.90;0.43;;;;;;;;;;10340664;28;20644;-79
2022/03/18 13:27:56;;;;;;;0.47;0.20;;;;;;;;;;10331092;28;20219;-77
2022/03/18 13:32:58;;;;;;;1.45;0.30;;;;;;;;;;10337731;28;20270;-76
2022/03/18 13:38:10;;;;;;;0.93;0.40;;;;;;;;;;10336607;28;20203;-77
2022/03/18 13:43:11;;;;;;;0.47;0.32;;;;;;;;;;10346446;28;20258;-80
2022/03/18 13:48:12;;;;;;;1.15;0.28;;;;;;;;;;10337613;28;20212;-77
2022/03/18 13:53:23;;;;;;;3.10;0.40;;;;;;;;;;10349501;28;20203;-77
2022/03/18 13:58:26;;;;;;;0.40;0.30;;;;;;;;;;10350756;28;20692;-83
2022/03/18 14:03:29;;;;;;;0.80;0.40;;;;;;;;;;10353592;28;20220;-81
2022/03/18 14:08:43;;;;;;;1.05;0.30;;;;;;;;;;10348648;28;20204;-80
2022/03/18 14:13:44;;;;;;;0.43;0.40;;;;;;;;;;10354065;28;20208;-78
2022/03/18 14:18:45;;;;;;;0.95;0.30;;;;;;;;;;10351823;28;20234;-81
2022/03/18 14:23:47;;;;;;;0.68;0.40;;;;;;;;;;10353734;28;20207;-82
2022/03/18 14:28:48;;;;;;;0.52;0.50;;;;;;;;;;10356609;28;20212;-80
2022/03/18 14:33:49;;;;;;;1.65;0.30;;;;;;;;;;10355383;28;20346;-82
2022/03/18 14:38:50;;;;;;;0.30;0.30;;;;;;;;;;10356523;28;20263;-83
2022/03/18 14:43:51;;;;;;;0.75;0.25;;;;;;;;;;10354040;28;20360;-79
2022/03/18 14:48:52;;;;;;;0.30;0.30;;;;;;;;;;10359524;28;20256;-83
2022/03/18 14:53:53;;;;;;;1.25;0.30;;;;;;;;;;10350250;28;20200;-80
2022/03/18 14:58:55;;;;;;;0.50;0.30;;;;;;;;;;10347546;28;20200;-77
2022/03/18 15:04:01;;;;;;;0.30;0.30;;;;;;;;;;10349099;28;20235;-78
2022/03/18 15:09:02;;;;;;;0.93;0.55;;;;;;;;;;10346100;28;20939;-80
2022/03/18 15:14:03;;;;;;;0.50;0.50;;;;;;;;;;10346291;28;20304;-77
2022/03/18 15:19:05;;;;;;;1.10;0.50;;;;;;;;;;10336943;28;20695;-78
2022/03/18 15:24:06;;;;;;;0.50;0.50;;;;;;;;;;10339753;28;20212;-81
2022/03/18 15:29:07;;;;;;;0.50;0.50;;;;;;;;;;10342925;28;20209;-80
2022/03/18 15:34:10;;;;;;;9.48;0.77;;;;;;;;;;10343018;28;20227;-81
2022/03/18 15:39:11;;;;;;;1.67;0.60;;;;;;;;;;10338888;28;20318;-76
2022/03/18 15:44:12;;;;;;;4.43;0.80;;;;;;;;;;10329242;28;20314;-78
2022/03/18 15:49:16;;;;;;;2.63;0.60;;;;;;;;;;10345040;28;20258;-77
2022/03/18 15:54:17;;;;;;;0.77;0.63;;;;;;;;;;10345392;28;20251;-76
2022/03/18 15:59:19;;;;;;;1.50;0.70;;;;;;;;;;10344195;28;20280;-77
2022/03/18 16:04:21;;;;;;;0.70;0.70;;;;;;;;;;10342480;28;20261;-77
2022/03/18 16:09:22;;;;;;;1.35;0.65;;;;;;;;;;10340405;28;20244;-79
2022/03/18 16:14:23;;;;;;;2.97;0.80;;;;;;;;;;10344084;28;20695;-77
2022/03/18 16:19:24;;;;;;;1.40;1.00;;;;;;;;;;10344294;28;20274;-78
2022/03/18 16:24:25;;;;;;;3.88;0.85;;;;;;;;;;10344325;28;20216;-79
2022/03/18 16:29:27;;;;;;;1.67;0.80;;;;;;;;;;10344138;28;20259;-78
2022/03/18 16:34:28;;;;;;;3.17;0.93;;;;;;;;;;10337455;28;20216;-81
2022/03/18 16:39:29;;;;;;;2.05;0.70;;;;;;;;;;10342657;28;20225;-78
2022/03/18 16:44:30;;;;;;;2.03;0.80;;;;;;;;;;10342924;28;20212;-81
2022/03/18 16:49:31;;;;;;;2.38;0.75;;;;;;;;;;10348731;28;20217;-79
2022/03/18 16:54:32;;;;;;;2.92;1.05;;;;;;;;;;10348437;28;20612;-78
2022/03/18 16:59:33;;;;;;;0.88;0.70;;;;;;;;;;10349001;28;20214;-81
2022/03/18 17:04:37;;;;;;;4.03;0.95;;;;;;;;;;10349035;28;21965;-79
2022/03/18 17:09:38;;;;;;;5.95;1.30;;;;;;;;;;10348234;28;20607;-79
2022/03/18 17:14:39;;;;;;;1.25;1.05;;;;;;;;;;10344279;28;20209;-78
2022/03/18 17:19:40;;;;;;;1.20;1.15;;;;;;;;;;10351762;28;20188;-78
2022/03/18 17:24:41;;;;;;;3.55;0.70;;;;;;;;;;10357571;28;20257;-77
2022/03/18 17:29:42;;;;;;;4.97;1.10;;;;;;;;;;10351913;28;20212;-79
2022/03/18 17:34:45;;;;;;;4.18;2.05;;;;;;;;;;10357205;28;20331;-77
2022/03/18 17:39:46;;;;;;;13.98;8.13;;;;;;;;;;10356286;28;20233;-79
2022/03/18 17:44:47;;;;;;;8.93;6.55;;;;;;;;;;10352394;28;20212;-70
2022/03/18 17:49:48;;;;;;;7.10;4.82;;;;;;;;;;10340344;28;21167;-78
2022/03/18 17:54:51;;;;;;;6.47;4.70;;;;;;;;;;10346721;28;20220;-79
2022/03/18 17:59:55;;;;;;;5.63;5.13;;;;;;;;;;10355920;28;20207;-78
2022/03/18 18:04:56;;;;;;;6.38;5.00;;;;;;;;;;10349547;28;20225;-78
2022/03/18 18:09:57;;;;;;;8.82;7.15;;;;;;;;;;10346207;28;20231;-77
2022/03/18 18:14:58;;;;;;;7.28;6.57;;;;;;;;;;10346451;28;20196;-76
2022/03/18 18:25:20;;;;;;;6.03;5.00;;;;;;;;;;10344934;28;20232;-76
2022/03/18 18:30:21;;;;;;;7.88;4.60;;;;;;;;;;10340751;28;20209;-75
2022/03/18 18:35:23;;;;;;;4.75;3.85;;;;;;;;;;10339382;28;20208;-76
2022/03/18 18:40:24;;;;;;;5.30;3.70;;;;;;;;;;10343424;28;20600;-76
2022/03/18 18:45:25;;;;;;;3.85;3.30;;;;;;;;;;10341669;28;20259;-76
2022/03/18 18:50:26;;;;;;;5.50;3.80;;;;;;;;;;10341439;28;20212;-76
2022/03/18 18:55:27;;;;;;;4.18;3.90;;;;;;;;;;10345137;28;20699;-77
2022/03/18 19:00:29;;;;;;;12.18;6.95;;;;;;;;;;10344031;28;20216;-77
2022/03/18 19:05:30;;;;;;;17.52;10.38;;;;;;;;;;10344237;28;20215;-75
2022/03/18 19:10:31;;;;;;;15.75;9.77;;;;;;;;;;10347645;28;20208;-77
2022/03/18 19:15:32;;;;;;;11.88;8.70;;;;;;;;;;10344821;28;20453;-78
2022/03/18 19:20:34;;;;;;;11.40;8.95;;;;;;;;;;10342227;28;20696;-75
2022/03/18 19:25:36;;;;;;;10.77;7.97;;;;;;;;;;10342340;28;21609;-77
2022/03/18 19:30:37;;;;;;;8.32;7.53;;;;;;;;;;10339289;28;20212;-77
2022/03/18 19:35:40;;;;;;;8.95;6.95;;;;;;;;;;10339753;28;20863;-77
2022/03/18 19:40:42;;;;;;;9.43;6.72;;;;;;;;;;10339166;28;20252;-77
2022/03/18 19:45:43;;;;;;;8.35;6.43;;;;;;;;;;10340508;28;20204;-77
2022/03/18 19:50:48;;;;;;;7.55;5.60;;;;;;;;;;10337470;28;20271;-77
2022/03/18 20:01:09;;;;;;;5.50;4.90;;;;;;;;;;10343514;28;20244;-77
2022/03/18 20:06:10;;;;;;;6.00;5.50;;;;;;;;;;10344485;28;20653;-78
2022/03/18 20:11:13;;;;;;;8.38;6.25;;;;;;;;;;10340486;28;20200;-77
2022/03/18 20:16:15;;;;;;;7.75;7.05;;;;;;;;;;10340122;28;20785;-76
2022/03/18 20:21:16;;;;;;;11.88;8.07;;;;;;;;;;10343042;28;20292;-77
2022/03/18 20:26:17;;;;;;;13.60;7.97;;;;;;;;;;10345178;28;20205;-77
2022/03/18 20:31:18;;;;;;;12.65;8.15;;;;;;;;;;10343617;28;20235;-79
2022/03/18 20:36:19;;;;;;;10.15;6.90;;;;;;;;;;10348592;28;20770;-78
2022/03/18 20:41:20;;;;;;;9.40;6.20;;;;;;;;;;10349317;28;20271;-80
2022/03/18 20:46:21;;;;;;;5.97;5.38;;;;;;;;;;10349728;28;20216;-80
2022/03/18 20:51:23;;;;;;;14.25;6.70;;;;;;;;;;10354700;28;20211;-79
2022/03/18 20:56:24;;;;;;;7.25;6.45;;;;;;;;;;10336059;28;20741;-79
2022/03/18 21:01:25;;;;;;;12.07;7.03;;;;;;;;;;10342186;28;20318;-79
2022/03/18 21:06:26;;;;;;;10.18;6.85;;;;;;;;;;10336700;28;20204;-78
2022/03/18 21:11:28;;;;;;;9.65;7.85;;;;;;;;;;10338958;28;20199;-79
2022/03/18 21:16:31;;;;;;;22.63;12.55;;;;;;;;;;10343247;28;20204;-80
2022/03/18 21:21:32;;;;;;;39.90;17.27;;;;;;;;;;10336651;28;20751;-79
2022/03/18 21:31:55;;;;;;;14.07;8.10;;;;;;;;;;10336415;28;20757;-80
2022/03/18 21:36:56;;;;;;;9.55;8.07;;;;;;;;;;10336961;28;20370;-78
2022/03/18 21:41:59;;;;;;;10.07;7.85;;;;;;;;;;10337118;28;20314;-77
2022/03/18 21:47:01;;;;;;;12.38;7.40;;;;;;;;;;10338810;28;20299;-79
2022/03/18 21:52:02;;;;;;;9.68;6.50;;;;;;;;;;10334035;28;20201;-77
2022/03/18 21:57:03;;;;;;;10.02;4.75;;;;;;;;;;10332078;28;20633;-77
2022/03/18 22:02:04;;;;;;;9.30;4.57;;;;;;;;;;10337796;28;20719;-76
2022/03/18 22:07:05;;;;;;;6.45;4.03;;;;;;;;;;10335572;28;20220;-77
2022/03/18 22:12:06;;;;;;;6.78;3.88;;;;;;;;;;10342610;28;20279;-77
2022/03/18 22:17:08;;;;;;;11.82;5.30;;;;;;;;;;10340186;28;20200;-77
2022/03/18 22:22:10;;;;;;;8.90;4.95;;;;;;;;;;10337632;28;20209;-76
2022/03/18 22:27:11;;;;;;;8.40;5.18;;;;;;;;;;10340331;28;20565;-77
2022/03/18 22:32:12;;;;;;;14.05;6.88;;;;;;;;;;10338770;28;20287;-77
2022/03/18 22:37:14;;;;;;;12.95;8.48;;;;;;;;;;10342069;28;20254;-77
2022/03/18 22:42:15;;;;;;;9.40;6.47;;;;;;;;;;10343886;28;20235;-77
2022/03/18 22:47:18;;;;;;;23.60;8.02;;;;;;;;;;10341126;28;20220;-76
2022/03/18 22:52:19;;;;;;;10.30;6.25;;;;;;;;;;10340108;28;20201;-77
2022/03/18 22:57:20;;;;;;;11.32;5.95;;;;;;;;;;10341975;28;20215;-77
2022/03/18 23:02:21;;;;;;;9.57;5.78;;;;;;;;;;10346052;28;20231;-76
2022/03/18 23:07:22;;;;;;;9.77;6.22;;;;;;;;;;10339183;28;20243;-77
2022/03/18 23:12:23;;;;;;;8.77;5.85;;;;;;;;;;10339628;28;20299;-77
2022/03/18 23:17:24;;;;;;;12.35;5.85;;;;;;;;;;10339409;28;20213;-77
2022/03/18 23:22:25;;;;;;;12.07;6.07;;;;;;;;;;10337155;28;20308;-76
2022/03/18 23:27:26;;;;;;;12.15;5.20;;;;;;;;;;10341999;28;20216;-76
2022/03/18 23:32:27;;;;;;;12.75;6.18;;;;;;;;;;10339473;28;20238;-76
2022/03/18 23:37:29;;;;;;;6.78;4.53;;;;;;;;;;10339797;28;20210;-76
2022/03/18 23:42:30;;;;;;;11.82;5.15;;;;;;;;;;10341913;28;20231;-76
2022/03/18 23:47:32;;;;;;;12.13;5.68;;;;;;;;;;10340484;28;20297;-77
2022/03/18 23:52:34;;;;;;;8.40;5.53;;;;;;;;;;10340113;28;20931;-77
2022/03/18 23:57:35;;;;;;;15.27;6.82;;;;;;;;;;10340579;28;20695;-77
